createdAt,value
2024-03-11T00:00:05.718Z,83.99
2024-03-11T00:01:06.123Z,83.64
2024-03-11T00:02:06.525Z,83.54
2024-03-11T00:03:06.834Z,83.64
2024-03-11T00:04:07.165Z,83.78
2024-03-11T00:05:07.559Z,84.20
2024-03-11T00:06:07.889Z,84.20
2024-03-11T00:07:08.261Z,84.30
2024-03-11T00:08:08.598Z,84.30
2024-03-11T00:09:08.932Z,84.50
2024-03-11T00:10:09.345Z,84.30
2024-03-11T00:11:09.736Z,84.50
2024-03-11T00:12:10.124Z,84.61
2024-03-11T00:13:10.383Z,83.95
2024-03-11T00:14:10.829Z,83.85
2024-03-11T00:15:11.120Z,84.20
2024-03-11T00:16:11.433Z,84.50
2024-03-11T00:17:11.842Z,84.95
2024-03-11T00:18:12.189Z,85.16
2024-03-11T00:19:12.480Z,85.47
2024-03-11T00:20:12.900Z,85.71
2024-03-11T00:21:13.242Z,86.13
2024-03-11T00:22:13.551Z,86.33
2024-03-11T00:23:13.880Z,86.23
2024-03-11T00:24:14.223Z,86.33
2024-03-11T00:25:14.577Z,86.23
2024-03-11T00:26:14.970Z,86.54
2024-03-11T00:27:15.272Z,86.43
2024-03-11T00:28:15.584Z,86.43
2024-03-11T00:29:15.955Z,86.47
2024-03-11T00:30:16.317Z,86.79
2024-03-11T00:31:16.716Z,87.09
2024-03-11T00:32:17.055Z,87.44
2024-03-11T00:33:17.392Z,87.75
2024-03-11T00:34:17.710Z,88.17
2024-03-11T00:35:18.456Z,88.26
2024-03-11T00:36:18.415Z,88.51
2024-03-11T00:37:18.788Z,88.78
2024-03-11T00:38:19.166Z,88.47
2024-03-11T00:39:19.489Z,88.12
2024-03-11T00:40:19.860Z,88.06
2024-03-11T00:41:20.266Z,88.68
2024-03-11T00:42:20.605Z,88.62
2024-03-11T00:43:20.920Z,88.37
2024-03-11T00:44:21.278Z,88.57
2024-03-11T00:45:21.602Z,88.92
2024-03-11T00:46:21.943Z,88.92
2024-03-11T00:47:22.429Z,88.92
2024-03-11T00:48:22.719Z,89.03
2024-03-11T00:49:23.061Z,89.34
2024-03-11T00:50:23.416Z,89.34
2024-03-11T00:51:23.765Z,88.78
2024-03-11T00:52:24.140Z,88.99
2024-03-11T00:53:24.495Z,88.89
2024-03-11T00:54:24.772Z,89.13
2024-03-11T00:55:25.129Z,89.09
2024-03-11T00:56:25.533Z,88.99
2024-03-11T00:57:25.847Z,88.89
2024-03-11T00:58:26.197Z,89.23
2024-03-11T00:59:26.532Z,88.99
2024-03-11T01:00:26.867Z,89.03
2024-03-11T01:01:27.343Z,88.99
2024-03-11T01:02:27.707Z,88.89
2024-03-11T01:03:27.958Z,88.99
2024-03-11T01:04:28.310Z,88.64
2024-03-11T01:05:28.693Z,88.47
2024-03-11T01:06:29.050Z,88.89
2024-03-11T01:07:38.467Z,88.57
2024-03-11T01:08:29.789Z,88.78
2024-03-11T01:09:30.152Z,88.68
2024-03-11T01:10:30.458Z,88.68
2024-03-11T01:11:30.863Z,88.78
2024-03-11T01:12:31.138Z,88.68
2024-03-11T01:13:31.437Z,88.78
2024-03-11T01:14:31.897Z,88.68
2024-03-11T01:15:32.173Z,88.68
2024-03-11T01:16:32.486Z,88.74
2024-03-11T01:17:32.886Z,88.43
2024-03-11T01:18:33.228Z,88.43
2024-03-11T01:19:33.549Z,88.23
2024-03-11T01:20:34.041Z,88.23
2024-03-11T01:21:34.299Z,88.12
2024-03-11T01:22:34.694Z,88.23
2024-03-11T01:23:35.010Z,88.53
2024-03-11T01:24:35.397Z,88.78
2024-03-11T01:25:35.720Z,88.78
2024-03-11T01:26:36.106Z,88.74
2024-03-11T01:27:36.454Z,88.43
2024-03-11T01:28:36.767Z,88.74
2024-03-11T01:29:39.628Z,88.74
2024-03-11T01:30:37.480Z,88.74
2024-03-11T01:31:37.819Z,88.89
2024-03-11T01:32:38.385Z,88.99
2024-03-11T01:33:38.568Z,89.05
2024-03-11T01:34:38.904Z,88.64
2024-03-11T01:35:39.278Z,88.74
2024-03-11T01:36:39.645Z,88.64
2024-03-11T01:37:39.992Z,88.53
2024-03-11T01:38:40.368Z,88.53
2024-03-11T01:39:40.650Z,88.53
2024-03-11T01:40:41.006Z,88.64
2024-03-11T01:41:41.463Z,89.05
2024-03-11T01:42:41.753Z,89.29
2024-03-11T01:43:42.091Z,89.40
2024-03-11T01:44:42.546Z,89.81
2024-03-11T01:45:42.797Z,89.67
2024-03-11T01:46:43.190Z,89.56
2024-03-11T01:47:43.557Z,89.71
2024-03-11T01:48:43.858Z,89.81
2024-03-11T01:49:44.264Z,89.25
2024-03-11T01:50:44.932Z,89.05
2024-03-11T01:51:44.937Z,89.15
2024-03-11T01:52:45.227Z,89.50
2024-03-11T01:53:45.634Z,89.81
2024-03-11T01:54:45.917Z,90.12
2024-03-11T01:55:46.297Z,90.01
2024-03-11T01:56:46.662Z,89.61
2024-03-11T01:57:46.994Z,90.01
2024-03-11T01:58:47.337Z,89.71
2024-03-11T01:59:47.743Z,89.61
2024-03-11T02:00:48.097Z,89.61
2024-03-11T02:01:48.471Z,89.81
2024-03-11T02:02:48.839Z,90.22
2024-03-11T02:03:49.146Z,89.87
2024-03-11T02:04:49.517Z,89.46
2024-03-11T02:05:49.893Z,89.25
2024-03-11T02:06:50.195Z,89.71
2024-03-11T02:07:50.532Z,90.01
2024-03-11T02:08:50.916Z,89.91
2024-03-11T02:09:51.230Z,89.91
2024-03-11T02:10:51.651Z,90.01
2024-03-11T02:11:52.082Z,90.12
2024-03-11T02:12:52.323Z,90.43
2024-03-11T02:13:52.677Z,90.12
2024-03-11T02:14:53.123Z,89.81
2024-03-11T02:15:53.375Z,90.01
2024-03-11T02:16:53.749Z,89.87
2024-03-11T02:17:54.202Z,89.61
2024-03-11T02:18:54.461Z,90.33
2024-03-11T02:19:54.811Z,90.43
2024-03-11T02:20:55.197Z,90.22
2024-03-11T02:21:55.521Z,90.22
2024-03-11T02:22:55.863Z,90.33
2024-03-11T02:23:56.185Z,90.22
2024-03-11T02:24:56.540Z,90.47
2024-03-11T02:25:56.878Z,91.09
2024-03-11T02:26:57.245Z,91.09
2024-03-11T02:27:57.694Z,90.64
2024-03-11T02:28:57.964Z,90.99
2024-03-11T02:29:58.319Z,90.64
2024-03-11T02:30:58.682Z,90.43
2024-03-11T02:31:59.064Z,90.22
2024-03-11T02:32:59.587Z,90.33
2024-03-11T02:33:59.727Z,90.73
2024-03-11T02:35:00.071Z,90.64
2024-03-11T02:36:00.520Z,90.53
2024-03-11T02:37:00.830Z,90.53
2024-03-11T02:38:01.239Z,90.53
2024-03-11T02:39:01.544Z,90.88
2024-03-11T02:40:01.923Z,91.09
2024-03-11T02:41:02.303Z,91.05
2024-03-11T02:42:02.591Z,90.53
2024-03-11T02:43:02.964Z,90.53
2024-03-11T02:44:03.369Z,90.73
2024-03-11T02:45:03.683Z,90.43
2024-03-11T02:46:04.008Z,90.43
2024-03-11T02:47:04.409Z,90.78
2024-03-11T02:48:04.862Z,91.19
2024-03-11T02:49:05.037Z,91.40
2024-03-11T02:50:05.429Z,91.19
2024-03-11T02:51:05.730Z,90.84
2024-03-11T02:52:06.146Z,90.94
2024-03-11T02:53:06.452Z,90.84
2024-03-11T02:54:06.793Z,90.99
2024-03-11T02:55:07.564Z,91.15
2024-03-11T02:56:07.541Z,90.84
2024-03-11T02:57:07.836Z,90.43
2024-03-11T02:58:08.253Z,90.99
2024-03-11T02:59:08.545Z,91.40
2024-03-11T03:00:08.871Z,90.99
2024-03-11T03:01:09.233Z,90.84
2024-03-11T03:02:09.644Z,91.19
2024-03-11T03:03:10.008Z,91.05
2024-03-11T03:04:10.303Z,90.84
2024-03-11T03:05:10.689Z,90.73
2024-03-11T03:06:10.990Z,90.84
2024-03-11T03:07:11.380Z,90.84
2024-03-11T03:08:11.690Z,90.64
2024-03-11T03:09:12.034Z,90.84
2024-03-11T03:10:12.407Z,90.73
2024-03-11T03:11:12.831Z,90.73
2024-03-11T03:12:13.256Z,90.43
2024-03-11T03:13:13.475Z,90.18
2024-03-11T03:14:13.819Z,90.28
2024-03-11T03:15:14.175Z,90.33
2024-03-11T03:16:14.534Z,90.18
2024-03-11T03:17:15.010Z,89.97
2024-03-11T03:18:15.240Z,90.43
2024-03-11T03:19:15.569Z,90.33
2024-03-11T03:20:16.334Z,90.84
2024-03-11T03:21:16.300Z,91.05
2024-03-11T03:22:16.618Z,91.15
2024-03-11T03:23:17.008Z,90.69
2024-03-11T03:24:17.347Z,90.64
2024-03-11T03:25:17.712Z,90.94
2024-03-11T03:26:18.095Z,90.94
2024-03-11T03:27:18.389Z,90.84
2024-03-11T03:28:18.792Z,90.84
2024-03-11T03:29:19.125Z,90.94
2024-03-11T03:30:19.574Z,90.18
2024-03-11T03:31:19.839Z,90.53
2024-03-11T03:32:20.205Z,90.73
2024-03-11T03:33:20.537Z,91.40
2024-03-11T03:34:20.897Z,91.30
2024-03-11T03:35:21.254Z,91.71
2024-03-11T03:36:21.612Z,91.81
2024-03-11T03:37:21.974Z,91.40
2024-03-11T03:38:22.372Z,91.71
2024-03-11T03:39:22.690Z,91.71
2024-03-11T03:40:23.006Z,91.66
2024-03-11T03:41:23.415Z,91.50
2024-03-11T03:42:23.738Z,91.71
2024-03-11T03:43:24.072Z,91.81
2024-03-11T03:44:24.534Z,91.60
2024-03-11T03:45:24.823Z,91.60
2024-03-11T03:46:25.153Z,92.02
2024-03-11T03:47:25.587Z,92.12
2024-03-11T03:48:25.897Z,92.02
2024-03-11T03:49:26.217Z,92.12
2024-03-11T03:50:26.581Z,91.81
2024-03-11T03:51:26.930Z,92.33
2024-03-11T03:52:27.254Z,91.71
2024-03-11T03:53:27.684Z,92.27
2024-03-11T03:54:27.955Z,92.47
2024-03-11T03:55:28.317Z,92.47
2024-03-11T03:56:28.714Z,92.57
2024-03-11T03:57:29.035Z,92.22
2024-03-11T03:58:31.123Z,91.97
2024-03-11T03:59:29.819Z,91.60
2024-03-11T04:00:30.084Z,91.40
2024-03-11T04:01:30.489Z,91.71
2024-03-11T04:02:30.808Z,91.81
2024-03-11T04:03:31.140Z,92.12
2024-03-11T04:04:31.514Z,91.91
2024-03-11T04:05:31.909Z,91.71
2024-03-11T04:06:32.231Z,91.81
2024-03-11T04:07:32.588Z,91.91
2024-03-11T04:08:32.949Z,91.50
2024-03-11T04:09:33.270Z,91.36
2024-03-11T04:10:33.627Z,91.25
2024-03-11T04:11:34.108Z,90.84
2024-03-11T04:12:34.342Z,91.60
2024-03-11T04:13:36.294Z,91.91
2024-03-11T04:14:35.114Z,91.91
2024-03-11T04:15:35.430Z,91.91
2024-03-11T04:16:35.798Z,91.91
2024-03-11T04:17:36.155Z,91.91
2024-03-11T04:18:36.504Z,91.71
2024-03-11T04:19:36.809Z,91.81
2024-03-11T04:20:37.224Z,91.36
2024-03-11T04:21:37.538Z,91.60
2024-03-11T04:22:37.876Z,91.60
2024-03-11T04:23:38.461Z,91.81
2024-03-11T04:24:38.575Z,91.50
2024-03-11T04:25:38.931Z,91.46
2024-03-11T04:26:39.369Z,91.25
2024-03-11T04:27:39.658Z,91.81
2024-03-11T04:28:40.025Z,91.50
2024-03-11T04:29:40.422Z,91.56
2024-03-11T04:30:40.720Z,91.46
2024-03-11T04:31:41.113Z,91.71
2024-03-11T04:32:41.461Z,92.02
2024-03-11T04:33:41.899Z,91.91
2024-03-11T04:34:42.111Z,92.22
2024-03-11T04:35:42.509Z,92.02
2024-03-11T04:36:42.855Z,91.91
2024-03-11T04:37:43.234Z,92.02
2024-03-11T04:38:43.721Z,92.02
2024-03-11T04:39:43.953Z,91.91
2024-03-11T04:40:44.306Z,91.91
2024-03-11T04:41:47.015Z,91.71
2024-03-11T04:42:45.015Z,91.81
2024-03-11T04:43:45.371Z,91.71
2024-03-11T04:44:45.818Z,92.02
2024-03-11T04:45:46.089Z,91.77
2024-03-11T04:46:46.445Z,91.66
2024-03-11T04:47:46.874Z,91.71
2024-03-11T04:48:47.335Z,91.71
2024-03-11T04:49:47.496Z,91.87
2024-03-11T04:50:47.854Z,91.66
2024-03-11T04:51:48.216Z,91.56
2024-03-11T04:52:48.535Z,91.56
2024-03-11T04:53:48.917Z,91.56
2024-03-11T04:54:49.247Z,91.56
2024-03-11T04:55:49.664Z,91.60
2024-03-11T04:56:49.999Z,91.91
2024-03-11T04:57:50.346Z,92.02
2024-03-11T04:58:50.667Z,92.12
2024-03-11T04:59:51.090Z,92.02
2024-03-11T05:00:51.401Z,91.66
2024-03-11T05:01:51.786Z,92.02
2024-03-11T05:02:52.108Z,92.33
2024-03-11T05:03:52.426Z,92.12
2024-03-11T05:04:52.790Z,92.22
2024-03-11T05:05:53.182Z,91.87
2024-03-11T05:06:53.501Z,91.81
2024-03-11T05:07:53.853Z,91.87
2024-03-11T05:08:54.250Z,91.66
2024-03-11T05:09:54.539Z,91.36
2024-03-11T05:10:54.921Z,91.25
2024-03-11T05:11:55.454Z,91.56
2024-03-11T05:12:55.633Z,91.71
2024-03-11T05:13:56.007Z,91.81
2024-03-11T05:14:56.358Z,91.91
2024-03-11T05:15:56.721Z,92.02
2024-03-11T05:16:57.138Z,91.87
2024-03-11T05:17:57.636Z,91.87
2024-03-11T05:18:57.840Z,91.46
2024-03-11T05:19:58.190Z,91.46
2024-03-11T05:20:58.593Z,91.31
2024-03-11T05:21:58.909Z,91.25
2024-03-11T05:22:59.250Z,91.66
2024-03-11T05:23:59.618Z,91.36
2024-03-11T05:24:59.908Z,91.36
2024-03-11T05:26:00.030Z,91.11
2024-03-11T05:27:00.344Z,91.25
2024-03-11T05:28:00.628Z,91.66
2024-03-11T05:29:00.882Z,91.36
2024-03-11T05:30:01.150Z,91.25
2024-03-11T05:31:01.471Z,91.25
2024-03-11T05:32:01.647Z,91.46
2024-03-11T05:33:02.071Z,91.66
2024-03-11T05:34:02.071Z,91.21
2024-03-11T05:35:02.413Z,90.80
2024-03-11T05:36:02.761Z,90.94
2024-03-11T05:37:02.978Z,91.00
2024-03-11T05:38:03.241Z,90.94
2024-03-11T05:39:03.538Z,91.15
2024-03-11T05:40:03.736Z,91.42
2024-03-11T05:41:04.042Z,91.00
2024-03-11T05:42:04.171Z,91.15
2024-03-11T05:43:04.448Z,91.15
2024-03-11T05:44:04.767Z,91.05
2024-03-11T05:45:05.031Z,90.94
2024-03-11T05:46:05.313Z,90.80
2024-03-11T05:47:05.530Z,90.69
2024-03-11T05:48:06.103Z,90.69
2024-03-11T05:49:05.925Z,90.59
2024-03-11T05:50:06.164Z,90.73
2024-03-11T05:51:06.430Z,90.94
2024-03-11T05:52:06.553Z,90.69
2024-03-11T05:53:06.899Z,91.15
2024-03-11T05:54:07.124Z,90.90
2024-03-11T05:55:07.507Z,90.69
2024-03-11T05:56:07.696Z,90.69
2024-03-11T05:57:07.979Z,91.05
2024-03-11T05:58:08.257Z,91.05
2024-03-11T05:59:08.610Z,91.05
2024-03-11T06:00:08.856Z,90.90
2024-03-11T06:01:09.050Z,90.90
2024-03-11T06:02:09.266Z,90.69
2024-03-11T06:03:09.481Z,90.73
2024-03-11T06:04:09.812Z,90.80
2024-03-11T06:05:10.117Z,91.11
2024-03-11T06:06:10.237Z,90.80
2024-03-11T06:07:10.549Z,90.90
2024-03-11T06:08:10.849Z,90.69
2024-03-11T06:09:11.851Z,90.90
2024-03-11T06:10:11.536Z,90.49
2024-03-11T06:11:11.804Z,90.49
2024-03-11T06:12:12.096Z,90.24
2024-03-11T06:13:12.289Z,89.94
2024-03-11T06:14:12.621Z,89.73
2024-03-11T06:15:12.769Z,90.14
2024-03-11T06:16:12.989Z,90.39
2024-03-11T06:17:13.163Z,90.39
2024-03-11T06:18:13.625Z,90.49
2024-03-11T06:19:13.601Z,90.28
2024-03-11T06:20:13.845Z,90.18
2024-03-11T06:21:13.961Z,90.39
2024-03-11T06:22:14.208Z,90.34
2024-03-11T06:23:14.393Z,89.94
2024-03-11T06:24:14.522Z,89.73
2024-03-11T06:25:14.685Z,89.62
2024-03-11T06:26:14.975Z,90.08
2024-03-11T06:27:15.167Z,90.03
2024-03-11T06:28:15.414Z,90.03
2024-03-11T06:29:15.602Z,89.73
2024-03-11T06:30:15.785Z,89.97
2024-03-11T06:31:15.952Z,89.83
2024-03-11T06:32:16.270Z,89.73
2024-03-11T06:33:16.439Z,89.73
2024-03-11T06:34:16.485Z,89.62
2024-03-11T06:35:16.748Z,89.62
2024-03-11T06:36:16.845Z,90.03
2024-03-11T06:37:17.041Z,90.03
2024-03-11T06:38:17.274Z,89.94
2024-03-11T06:39:17.532Z,89.83
2024-03-11T06:40:17.658Z,89.94
2024-03-11T06:41:17.847Z,89.83
2024-03-11T06:42:18.032Z,89.83
2024-03-11T06:43:18.252Z,89.83
2024-03-11T06:44:21.378Z,89.28
2024-03-11T06:45:18.701Z,89.62
2024-03-11T06:46:18.814Z,90.18
2024-03-11T06:47:19.112Z,90.14
2024-03-11T06:48:19.897Z,89.83
2024-03-11T06:49:19.566Z,89.94
2024-03-11T06:50:19.739Z,90.03
2024-03-11T06:51:20.018Z,89.83
2024-03-11T06:52:20.224Z,89.52
2024-03-11T06:53:20.367Z,89.83
2024-03-11T06:54:20.552Z,90.28
2024-03-11T06:55:20.735Z,90.45
2024-03-11T06:56:20.929Z,89.94
2024-03-11T06:57:21.148Z,90.18
2024-03-11T06:58:21.301Z,90.24
2024-03-11T06:59:23.987Z,89.94
2024-03-11T07:00:21.765Z,89.83
2024-03-11T07:01:22.086Z,89.83
2024-03-11T07:02:22.354Z,90.03
2024-03-11T07:03:22.403Z,90.14
2024-03-11T07:04:22.629Z,90.28
2024-03-11T07:05:22.761Z,90.14
2024-03-11T07:06:22.994Z,90.14
2024-03-11T07:07:23.148Z,89.73
2024-03-11T07:08:23.309Z,89.28
2024-03-11T07:09:23.497Z,89.17
2024-03-11T07:10:23.829Z,89.42
2024-03-11T07:11:24.182Z,89.69
2024-03-11T07:12:24.512Z,89.52
2024-03-11T07:13:24.674Z,89.31
2024-03-11T07:14:24.833Z,89.73
2024-03-11T07:15:25.309Z,89.94
2024-03-11T07:16:25.321Z,89.73
2024-03-11T07:17:25.631Z,89.58
2024-03-11T07:18:25.898Z,89.28
2024-03-11T07:19:26.035Z,88.96
2024-03-11T07:20:26.282Z,89.31
2024-03-11T07:21:26.463Z,89.38
2024-03-11T07:22:26.667Z,89.22
2024-03-11T07:23:27.224Z,89.38
2024-03-11T07:24:27.036Z,88.96
2024-03-11T07:25:27.234Z,89.28
2024-03-11T07:26:27.352Z,89.52
2024-03-11T07:27:27.570Z,89.52
2024-03-11T07:28:27.712Z,89.48
2024-03-11T07:29:27.892Z,89.28
2024-03-11T07:30:28.069Z,88.82
2024-03-11T07:31:28.291Z,88.96
2024-03-11T07:32:28.468Z,88.92
2024-03-11T07:33:29.082Z,88.86
2024-03-11T07:34:28.787Z,89.17
2024-03-11T07:35:28.948Z,89.07
2024-03-11T07:36:29.134Z,88.72
2024-03-11T07:37:29.342Z,88.31
2024-03-11T07:38:29.536Z,88.72
2024-03-11T07:39:29.677Z,88.51
2024-03-11T07:40:29.851Z,88.82
2024-03-11T07:41:30.134Z,88.57
2024-03-11T07:42:30.356Z,87.71
2024-03-11T07:43:30.735Z,87.59
2024-03-11T07:44:30.715Z,88.10
2024-03-11T07:45:30.866Z,88.51
2024-03-11T07:46:31.033Z,88.37
2024-03-11T07:47:31.263Z,87.96
2024-03-11T07:48:31.407Z,87.96
2024-03-11T07:49:31.636Z,88.06
2024-03-11T07:50:31.795Z,87.55
2024-03-11T07:51:32.003Z,87.75
2024-03-11T07:52:32.135Z,87.40
2024-03-11T07:53:32.420Z,87.90
2024-03-11T07:54:32.619Z,87.96
2024-03-11T07:55:32.775Z,87.51
2024-03-11T07:56:32.960Z,86.95
2024-03-11T07:57:33.291Z,87.30
2024-03-11T07:58:33.555Z,87.55
2024-03-11T07:59:33.720Z,87.75
2024-03-11T08:00:33.899Z,87.96
2024-03-11T08:01:34.074Z,87.61
2024-03-11T08:02:34.265Z,87.75
2024-03-11T08:03:34.475Z,87.90
2024-03-11T08:04:34.632Z,88.17
2024-03-11T08:05:34.801Z,87.96
2024-03-11T08:06:35.012Z,88.17
2024-03-11T08:07:35.340Z,87.71
2024-03-11T08:08:35.480Z,87.65
2024-03-11T08:09:35.678Z,87.61
2024-03-11T08:10:35.878Z,86.89
2024-03-11T08:11:36.044Z,87.10
2024-03-11T08:12:36.209Z,87.20
2024-03-11T08:13:36.499Z,87.55
2024-03-11T08:14:36.692Z,87.85
2024-03-11T08:15:36.858Z,87.96
2024-03-11T08:16:37.080Z,87.40
2024-03-11T08:17:37.291Z,87.40
2024-03-11T08:18:37.387Z,87.51
2024-03-11T08:19:37.554Z,87.51
2024-03-11T08:20:37.743Z,88.06
2024-03-11T08:21:37.920Z,88.06
2024-03-11T08:22:38.120Z,88.06
2024-03-11T08:23:38.416Z,87.96
2024-03-11T08:24:38.582Z,87.96
2024-03-11T08:25:38.770Z,88.17
2024-03-11T08:26:38.943Z,88.06
2024-03-11T08:27:39.151Z,87.57
2024-03-11T08:28:39.295Z,86.99
2024-03-11T08:29:39.582Z,87.30
2024-03-11T08:30:39.654Z,88.06
2024-03-11T08:31:39.836Z,87.92
2024-03-11T08:32:40.117Z,87.51
2024-03-11T08:33:40.200Z,87.61
2024-03-11T08:34:40.368Z,86.89
2024-03-11T08:35:40.605Z,87.71
2024-03-11T08:36:40.702Z,87.85
2024-03-11T08:37:40.905Z,87.92
2024-03-11T08:38:41.181Z,87.71
2024-03-11T08:39:41.512Z,87.40
2024-03-11T08:40:41.850Z,87.51
2024-03-11T08:41:42.072Z,87.61
2024-03-11T08:42:42.289Z,87.40
2024-03-11T08:43:42.414Z,87.92
2024-03-11T08:44:42.741Z,87.82
2024-03-11T08:45:43.254Z,87.71
2024-03-11T08:46:43.333Z,87.57
2024-03-11T08:47:43.517Z,87.40
2024-03-11T08:48:43.765Z,87.71
2024-03-11T08:49:43.948Z,87.92
2024-03-11T08:50:44.189Z,87.46
2024-03-11T08:51:44.325Z,87.51
2024-03-11T08:52:44.561Z,87.46
2024-03-11T08:53:44.659Z,87.16
2024-03-11T08:54:44.866Z,87.57
2024-03-11T08:55:45.009Z,87.82
2024-03-11T08:56:45.185Z,87.92
2024-03-11T08:57:45.381Z,87.77
2024-03-11T08:58:45.573Z,87.46
2024-03-11T08:59:45.831Z,87.26
2024-03-11T09:00:45.960Z,87.71
2024-03-11T09:01:46.130Z,87.67
2024-03-11T09:02:46.867Z,87.57
2024-03-11T09:03:46.529Z,87.92
2024-03-11T09:04:46.664Z,87.82
2024-03-11T09:05:46.848Z,87.92
2024-03-11T09:06:47.065Z,87.71
2024-03-11T09:07:47.393Z,88.02
2024-03-11T09:08:48.288Z,88.02
2024-03-11T09:09:47.847Z,88.02
2024-03-11T09:10:47.861Z,87.88
2024-03-11T09:11:48.101Z,87.57
2024-03-11T09:12:48.734Z,87.46
2024-03-11T09:13:48.498Z,88.14
2024-03-11T09:14:48.707Z,86.50
2024-03-11T09:15:48.879Z,86.95
2024-03-11T09:16:49.027Z,87.57
2024-03-11T09:17:49.285Z,87.98
2024-03-11T09:18:49.387Z,87.26
2024-03-11T09:19:49.542Z,87.57
2024-03-11T09:20:49.721Z,87.22
2024-03-11T09:21:49.966Z,87.32
2024-03-11T09:22:50.098Z,86.66
2024-03-11T09:23:50.237Z,86.60
2024-03-11T09:24:50.426Z,87.16
2024-03-11T09:25:50.590Z,87.46
2024-03-11T09:26:50.792Z,87.22
2024-03-11T09:27:51.004Z,87.46
2024-03-11T09:28:51.122Z,87.46
2024-03-11T09:29:51.287Z,87.53
2024-03-11T09:30:51.476Z,87.43
2024-03-11T09:31:51.755Z,87.22
2024-03-11T09:32:52.064Z,87.32
2024-03-11T09:33:52.203Z,87.02
2024-03-11T09:34:52.312Z,87.22
2024-03-11T09:35:52.505Z,87.12
2024-03-11T09:36:52.723Z,87.37
2024-03-11T09:37:52.981Z,87.46
2024-03-11T09:38:53.005Z,87.57
2024-03-11T09:39:53.469Z,87.63
2024-03-11T09:40:53.643Z,86.87
2024-03-11T09:41:53.923Z,87.02
2024-03-11T09:42:54.142Z,87.02
2024-03-11T09:43:54.301Z,87.32
2024-03-11T09:44:54.475Z,87.32
2024-03-11T09:45:54.761Z,87.12
2024-03-11T09:46:54.833Z,87.18
2024-03-11T09:47:55.046Z,87.02
2024-03-11T09:48:55.293Z,87.28
2024-03-11T09:49:55.376Z,86.87
2024-03-11T09:50:55.551Z,86.66
2024-03-11T09:51:55.752Z,87.12
2024-03-11T09:52:56.028Z,87.32
2024-03-11T09:53:56.238Z,87.08
2024-03-11T09:54:56.444Z,87.32
2024-03-11T09:55:56.567Z,87.43
2024-03-11T09:56:56.745Z,87.38
2024-03-11T09:57:56.973Z,86.87
2024-03-11T09:58:57.106Z,86.57
2024-03-11T09:59:57.287Z,86.87
2024-03-11T10:00:57.820Z,86.66
2024-03-11T10:01:57.690Z,86.63
2024-03-11T10:02:57.984Z,86.77
2024-03-11T10:03:58.242Z,86.98
2024-03-11T10:04:58.286Z,87.18
2024-03-11T10:05:59.714Z,87.08
2024-03-11T10:06:58.852Z,87.08
2024-03-11T10:07:58.862Z,86.98
2024-03-11T10:08:59.020Z,86.93
2024-03-11T10:09:59.274Z,86.98
2024-03-11T10:10:59.479Z,86.79
2024-03-11T10:11:59.564Z,85.97
2024-03-11T10:12:59.923Z,86.22
2024-03-11T10:13:59.914Z,86.52
2024-03-11T10:15:00.183Z,86.52
2024-03-11T10:16:00.319Z,86.63
2024-03-11T10:17:00.486Z,86.98
2024-03-11T10:18:00.701Z,87.14
2024-03-11T10:19:00.876Z,87.18
2024-03-11T10:20:01.119Z,87.28
2024-03-11T10:21:01.328Z,87.59
2024-03-11T10:22:01.529Z,87.28
2024-03-11T10:23:01.700Z,87.45
2024-03-11T10:24:01.843Z,87.14
2024-03-11T10:25:02.104Z,87.24
2024-03-11T10:26:02.216Z,86.73
2024-03-11T10:27:02.338Z,86.73
2024-03-11T10:28:02.580Z,86.69
2024-03-11T10:29:02.733Z,86.58
2024-03-11T10:30:02.906Z,86.73
2024-03-11T10:31:03.243Z,87.18
2024-03-11T10:32:03.507Z,87.14
2024-03-11T10:33:03.981Z,87.14
2024-03-11T10:34:04.040Z,87.24
2024-03-11T10:35:04.075Z,86.79
2024-03-11T10:36:04.282Z,86.44
2024-03-11T10:37:04.581Z,86.42
2024-03-11T10:38:04.649Z,86.83
2024-03-11T10:39:04.919Z,86.73
2024-03-11T10:40:05.143Z,87.04
2024-03-11T10:41:05.158Z,87.14
2024-03-11T10:42:05.356Z,87.34
2024-03-11T10:43:05.631Z,86.99
2024-03-11T10:44:05.715Z,86.18
2024-03-11T10:45:05.927Z,86.83
2024-03-11T10:46:06.132Z,87.59
2024-03-11T10:47:06.270Z,87.59
2024-03-11T10:48:06.527Z,87.14
2024-03-11T10:49:06.643Z,86.69
2024-03-11T10:50:06.755Z,86.34
2024-03-11T10:51:06.917Z,86.04
2024-03-11T10:52:07.248Z,86.07
2024-03-11T10:53:07.302Z,86.34
2024-03-11T10:54:07.470Z,85.63
2024-03-11T10:55:13.887Z,85.93
2024-03-11T10:57:22.347Z,85.77
2024-03-11T10:58:23.490Z,86.28
2024-03-11T10:59:23.650Z,87.04
2024-03-11T11:00:23.850Z,87.85
2024-03-11T11:01:24.215Z,87.96
2024-03-11T11:02:27.339Z,88.47
2024-03-11T11:03:24.798Z,88.68
2024-03-11T11:04:24.857Z,89.33
2024-03-11T11:05:25.168Z,89.39
2024-03-11T11:06:25.402Z,89.33
2024-03-11T11:07:25.548Z,89.19
2024-03-11T11:08:25.809Z,89.50
2024-03-11T11:09:26.188Z,89.39
2024-03-11T11:10:26.312Z,90.16
2024-03-11T11:11:26.498Z,90.46
2024-03-11T11:12:26.701Z,90.67
2024-03-11T11:13:26.818Z,91.49
2024-03-11T11:14:30.337Z,91.55
2024-03-11T11:15:27.456Z,91.65
2024-03-11T11:16:27.577Z,92.16
2024-03-11T11:17:27.654Z,91.49
2024-03-11T11:18:27.969Z,92.16
2024-03-11T11:19:28.217Z,92.36
2024-03-11T11:20:28.395Z,92.68
2024-03-11T11:21:28.762Z,92.72
2024-03-11T11:22:28.898Z,93.17
2024-03-11T11:23:29.804Z,93.48
2024-03-11T11:24:30.254Z,93.64
2024-03-11T11:25:29.383Z,92.82
2024-03-11T11:26:29.693Z,93.44
2024-03-11T11:27:29.919Z,93.07
2024-03-11T11:28:30.135Z,93.64
2024-03-11T11:29:30.572Z,93.48
2024-03-11T11:30:30.699Z,93.85
2024-03-11T11:31:30.939Z,93.54
2024-03-11T11:32:31.176Z,93.54
2024-03-11T11:33:31.443Z,93.13
2024-03-11T11:34:31.573Z,93.85
2024-03-11T11:35:31.761Z,93.85
2024-03-11T11:36:32.201Z,93.70
2024-03-11T11:37:32.121Z,93.02
2024-03-11T11:38:32.297Z,93.64
2024-03-11T11:39:32.498Z,93.95
2024-03-11T11:40:33.160Z,94.26
2024-03-11T11:41:32.841Z,94.26
2024-03-11T11:42:33.046Z,94.52
2024-03-11T11:43:33.217Z,94.15
2024-03-11T11:44:33.373Z,94.15
2024-03-11T11:45:33.602Z,94.26
2024-03-11T11:46:33.718Z,94.21
2024-03-11T11:47:33.970Z,94.21
2024-03-11T11:48:34.134Z,94.15
2024-03-11T11:49:34.364Z,94.21
2024-03-11T11:50:34.539Z,94.26
2024-03-11T11:51:34.975Z,94.46
2024-03-11T11:52:35.590Z,94.52
2024-03-11T11:53:38.766Z,93.90
2024-03-11T11:54:37.336Z,93.90
2024-03-11T11:55:35.494Z,93.76
2024-03-11T11:56:35.637Z,93.66
2024-03-11T11:57:38.320Z,93.90
2024-03-11T11:58:36.007Z,94.01
2024-03-11T11:59:36.169Z,94.52
2024-03-11T12:00:40.482Z,94.37
2024-03-11T12:01:36.649Z,94.21
2024-03-11T12:02:36.803Z,94.07
2024-03-11T12:03:36.966Z,93.66
2024-03-11T12:04:37.073Z,93.82
2024-03-11T12:05:37.260Z,93.76
2024-03-11T12:06:37.452Z,94.17
2024-03-11T12:07:37.667Z,94.27
2024-03-11T12:08:37.849Z,94.48
2024-03-11T12:09:38.094Z,94.43
2024-03-11T12:10:38.232Z,93.82
2024-03-11T12:11:38.465Z,93.82
2024-03-11T12:12:38.672Z,93.88
2024-03-11T12:13:38.800Z,93.51
2024-03-11T12:14:39.018Z,93.82
2024-03-11T12:15:39.855Z,94.02
2024-03-11T12:16:39.363Z,93.76
2024-03-11T12:17:39.638Z,93.82
2024-03-11T12:18:39.779Z,93.10
2024-03-11T12:19:39.930Z,93.51
2024-03-11T12:20:40.137Z,93.77
2024-03-11T12:21:40.318Z,92.55
2024-03-11T12:22:40.503Z,93.06
2024-03-11T12:23:40.678Z,92.96
2024-03-11T12:24:40.879Z,93.06
2024-03-11T12:25:41.032Z,93.47
2024-03-11T12:26:41.195Z,93.41
2024-03-11T12:27:41.460Z,93.67
2024-03-11T12:28:41.625Z,93.67
2024-03-11T12:29:41.778Z,93.32
2024-03-11T12:30:42.004Z,93.52
2024-03-11T12:31:42.182Z,92.81
2024-03-11T12:32:42.426Z,93.01
2024-03-11T12:33:42.533Z,93.37
2024-03-11T12:34:42.739Z,93.22
2024-03-11T12:35:42.907Z,93.12
2024-03-11T12:36:43.160Z,93.18
2024-03-11T12:37:43.303Z,92.81
2024-03-11T12:38:43.473Z,93.77
2024-03-11T12:39:43.822Z,93.77
2024-03-11T12:40:43.807Z,93.88
2024-03-11T12:41:44.008Z,94.14
2024-03-11T12:42:44.330Z,93.63
2024-03-11T12:43:44.436Z,93.73
2024-03-11T12:44:44.562Z,93.18
2024-03-11T12:45:44.880Z,93.01
2024-03-11T12:46:44.925Z,93.74
2024-03-11T12:47:45.245Z,92.87
2024-03-11T12:48:45.381Z,92.93
2024-03-11T12:49:45.512Z,92.32
2024-03-11T12:50:45.724Z,92.52
2024-03-11T12:51:46.750Z,92.11
2024-03-11T12:52:46.506Z,92.21
2024-03-11T12:53:46.232Z,91.91
2024-03-11T12:54:46.429Z,91.46
2024-03-11T12:55:46.613Z,91.66
2024-03-11T12:56:46.799Z,91.56